createdAt,value
2023-09-06T00:00:26.730Z,1017.02
2023-09-06T00:02:11.679Z,1016.96
2023-09-06T00:03:56.726Z,1016.97
2023-09-06T00:05:41.973Z,1016.97
2023-09-06T00:07:26.687Z,1017.01
2023-09-06T00:09:11.701Z,1016.92
2023-09-06T00:10:56.683Z,1016.9
2023-09-06T00:12:41.708Z,1016.95
2023-09-06T00:14:26.672Z,1016.95
2023-09-06T00:16:11.807Z,1016.98
2023-09-06T00:17:56.731Z,1016.98
2023-09-06T00:19:41.694Z,1016.92
2023-09-06T00:21:26.718Z,1016.94
2023-09-06T00:23:11.697Z,1016.86
2023-09-06T00:24:56.773Z,1016.9
2023-09-06T00:26:41.712Z,1017.02
2023-09-06T00:28:26.994Z,1016.95
2023-09-06T00:30:11.690Z,1016.99
2023-09-06T00:31:56.776Z,1016.92
2023-09-06T00:33:41.744Z,1016.97
2023-09-06T00:35:26.717Z,1016.94
2023-09-06T00:37:11.753Z,1016.97
2023-09-06T00:38:56.700Z,1016.87
2023-09-06T00:40:41.742Z,1016.84
2023-09-06T00:42:26.743Z,1016.95
2023-09-06T00:44:11.714Z,1016.91
2023-09-06T00:45:56.762Z,1016.86
2023-09-06T00:47:41.796Z,1016.97
2023-09-06T00:49:26.739Z,1016.89
2023-09-06T00:51:11.741Z,1016.88
2023-09-06T00:52:56.751Z,1016.91
2023-09-06T00:54:41.786Z,1016.97
2023-09-06T00:56:26.737Z,1016.85
2023-09-06T00:58:11.767Z,1016.92
2023-09-06T00:59:56.756Z,1016.95
2023-09-06T01:01:41.890Z,1017.05
2023-09-06T01:03:26.882Z,1016.98
2023-09-06T01:05:11.773Z,1016.99
2023-09-06T01:06:56.806Z,1016.97
2023-09-06T01:08:41.771Z,1016.92
2023-09-06T01:10:26.759Z,1016.89
2023-09-06T01:12:11.784Z,1017.02
2023-09-06T01:13:56.770Z,1016.98
2023-09-06T01:15:41.878Z,1016.91
2023-09-06T01:17:26.776Z,1017
2023-09-06T01:19:11.868Z,1017.03
2023-09-06T01:20:56.768Z,1016.94
2023-09-06T01:22:41.793Z,1016.93
2023-09-06T01:24:26.804Z,1016.95
2023-09-06T01:26:11.780Z,1016.9
2023-09-06T01:27:56.827Z,1016.97
2023-09-06T01:29:41.794Z,1017
2023-09-06T01:31:26.855Z,1016.96
2023-09-06T01:33:11.808Z,1016.97
2023-09-06T01:34:56.855Z,1016.97
2023-09-06T01:36:41.825Z,1017.03
2023-09-06T01:38:27.017Z,1016.97
2023-09-06T01:40:11.882Z,1017
2023-09-06T01:41:56.810Z,1017.02
2023-09-06T01:43:41.880Z,1017.03
2023-09-06T01:45:26.835Z,1017.05
2023-09-06T01:47:11.825Z,1016.96
2023-09-06T01:48:56.824Z,1017.03
2023-09-06T01:50:41.857Z,1017.04
2023-09-06T01:52:26.808Z,1016.92
2023-09-06T01:54:11.837Z,1016.95
2023-09-06T01:55:56.820Z,1016.94
2023-09-06T01:57:41.883Z,1017.04
2023-09-06T01:59:26.826Z,1017.06
2023-09-06T02:01:11.932Z,1017.01
2023-09-06T02:02:57.012Z,1017.1
2023-09-06T02:04:41.880Z,1017.08
2023-09-06T02:06:26.992Z,1017.02
2023-09-06T02:08:11.865Z,1017.1
2023-09-06T02:09:56.878Z,1017.03
2023-09-06T02:11:41.862Z,1016.95
2023-09-06T02:13:26.885Z,1016.95
2023-09-06T02:15:11.872Z,1017.04
2023-09-06T02:16:56.877Z,1016.9
2023-09-06T02:18:41.885Z,1017.03
2023-09-06T02:20:26.873Z,1017.01
2023-09-06T02:22:12.038Z,1017.02
2023-09-06T02:23:56.860Z,1017.08
2023-09-06T02:25:41.897Z,1017.01
2023-09-06T02:27:26.892Z,1016.96
2023-09-06T02:29:11.896Z,1016.98
2023-09-06T02:30:56.881Z,1016.96
2023-09-06T02:32:41.956Z,1016.98
2023-09-06T02:34:26.917Z,1016.97
2023-09-06T02:36:11.930Z,1016.99
2023-09-06T02:37:57.570Z,1016.96
2023-09-06T02:39:41.878Z,1016.99
2023-09-06T02:41:26.914Z,1017.01
2023-09-06T02:43:12.233Z,1017.03
2023-09-06T02:44:56.889Z,1016.97
2023-09-06T02:46:41.945Z,1017
2023-09-06T02:48:27.078Z,1016.98
2023-09-06T02:50:11.896Z,1017.04
2023-09-06T02:51:56.905Z,1016.96
2023-09-06T02:53:41.961Z,1016.93
2023-09-06T02:55:26.914Z,1017.07
2023-09-06T02:57:11.939Z,1017.03
2023-09-06T02:58:56.937Z,1017.01
2023-09-06T03:00:41.939Z,1016.98
2023-09-06T03:02:26.932Z,1016.96
2023-09-06T03:04:12.015Z,1017.02
2023-09-06T03:05:56.932Z,1017.05
2023-09-06T03:07:41.935Z,1017.06
2023-09-06T03:09:26.991Z,1017
2023-09-06T03:11:11.953Z,1017.05
2023-09-06T03:12:56.987Z,1017.04
2023-09-06T03:14:41.996Z,1017.04
2023-09-06T03:16:27.060Z,1016.95
2023-09-06T03:18:12.110Z,1017.02
2023-09-06T03:19:56.971Z,1017.01
2023-09-06T03:21:41.965Z,1017.11
2023-09-06T03:23:26.960Z,1017.03
2023-09-06T03:25:12.021Z,1017.06
2023-09-06T03:26:56.956Z,1016.96
2023-09-06T03:28:42.162Z,1017
2023-09-06T03:30:26.989Z,1016.94
2023-09-06T03:32:12.044Z,1017.08
2023-09-06T03:33:56.964Z,1016.99
2023-09-06T03:35:42.005Z,1017
2023-09-06T03:37:26.987Z,1016.99
2023-09-06T03:39:11.998Z,1017.02
2023-09-06T03:40:57.035Z,1017.01
2023-09-06T03:42:41.971Z,1016.95
2023-09-06T03:44:26.968Z,1017.07
2023-09-06T03:46:12.121Z,1017.08
2023-09-06T03:47:57.021Z,1017.01
2023-09-06T03:49:41.987Z,1017.07
2023-09-06T03:51:27.021Z,1017.09
2023-09-06T03:53:12.009Z,1017.08
2023-09-06T03:54:56.994Z,1017.05
2023-09-06T03:56:42.100Z,1017.17
2023-09-06T03:58:27.331Z,1017.11
2023-09-06T04:00:12.020Z,1017.03
2023-09-06T04:01:57.107Z,1016.96
2023-09-06T04:03:42.356Z,1017.08
2023-09-06T04:05:27.083Z,1017.07
2023-09-06T04:07:11.999Z,1017.08
2023-09-06T04:08:57.079Z,1017.09
2023-09-06T04:10:42.016Z,1017.04
2023-09-06T04:12:27.404Z,1017.11
2023-09-06T04:14:12.074Z,1017.11
2023-09-06T04:15:57.028Z,1017.05
2023-09-06T04:17:42.060Z,1017.11
2023-09-06T04:19:27.045Z,1017.11
2023-09-06T04:21:12.067Z,1017.21
2023-09-06T04:22:57.090Z,1017.16
2023-09-06T04:24:42.058Z,1017.23
2023-09-06T04:26:27.047Z,1017.19
2023-09-06T04:28:12.052Z,1017.22
2023-09-06T04:29:57.080Z,1017.16
2023-09-06T04:31:42.067Z,1017.21
2023-09-06T04:33:27.058Z,1017.27
2023-09-06T04:35:12.117Z,1017.28
2023-09-06T04:36:57.075Z,1017.29
2023-09-06T04:38:42.074Z,1017.29
2023-09-06T04:40:27.053Z,1017.38
2023-09-06T04:42:12.083Z,1017.45
2023-09-06T04:43:57.120Z,1017.4
2023-09-06T04:45:42.064Z,1017.41
2023-09-06T04:47:27.171Z,1017.4
2023-09-06T04:49:12.077Z,1017.54
2023-09-06T04:50:57.059Z,1017.48
2023-09-06T04:52:42.085Z,1017.43
2023-09-06T04:54:28.962Z,1017.51
2023-09-06T04:56:13.329Z,1017.55
2023-09-06T04:57:57.713Z,1017.53
2023-09-06T04:59:42.253Z,1017.51
2023-09-06T05:01:27.112Z,1017.55
2023-09-06T05:03:12.325Z,1017.57
2023-09-06T05:04:57.124Z,1017.5
2023-09-06T05:06:42.119Z,1017.54
2023-09-06T05:08:27.335Z,1017.53
2023-09-06T05:10:12.121Z,1017.57
2023-09-06T05:11:57.115Z,1017.59
2023-09-06T05:13:42.122Z,1017.58
2023-09-06T05:15:27.179Z,1017.59
2023-09-06T05:17:12.101Z,1017.56
2023-09-06T05:18:57.165Z,1017.54
2023-09-06T05:20:42.146Z,1017.64
2023-09-06T05:22:27.138Z,1017.61
2023-09-06T05:24:12.124Z,1017.65
2023-09-06T05:25:57.165Z,1017.66
2023-09-06T05:27:42.136Z,1017.7
2023-09-06T05:29:27.150Z,1017.54
2023-09-06T05:31:12.230Z,1017.62
2023-09-06T05:32:57.163Z,1017.57
2023-09-06T05:34:42.148Z,1017.61
2023-09-06T05:36:27.200Z,1017.69
2023-09-06T05:38:12.193Z,1017.66
2023-09-06T05:39:57.182Z,1017.61
2023-09-06T05:41:42.197Z,1017.68
2023-09-06T05:43:27.163Z,1017.73
2023-09-06T05:45:12.183Z,1017.67
2023-09-06T05:46:57.326Z,1017.71
2023-09-06T05:48:42.233Z,1017.7
2023-09-06T05:50:27.184Z,1017.66
2023-09-06T05:52:12.281Z,1017.62
2023-09-06T05:53:57.219Z,1017.74
2023-09-06T05:55:42.211Z,1017.67
2023-09-06T05:57:27.211Z,1017.73
2023-09-06T05:59:12.217Z,1017.79
2023-09-06T06:00:57.191Z,1017.61
2023-09-06T06:02:42.393Z,1017.7
2023-09-06T06:04:27.256Z,1017.66
2023-09-06T06:06:12.361Z,1017.71
2023-09-06T06:07:57.204Z,1017.71
2023-09-06T06:09:42.228Z,1017.76
2023-09-06T06:11:28.264Z,1017.68
2023-09-06T06:13:12.202Z,1017.75
2023-09-06T06:14:57.224Z,1017.78
2023-09-06T06:16:43.453Z,1017.72
2023-09-06T06:18:27.638Z,1017.78
2023-09-06T06:20:12.424Z,1017.75
2023-09-06T06:21:58.124Z,1017.74
2023-09-06T06:23:42.237Z,1017.85
2023-09-06T06:25:27.242Z,1017.68
2023-09-06T06:27:12.301Z,1017.81
2023-09-06T06:28:57.314Z,1017.79
2023-09-06T06:30:42.255Z,1017.86
2023-09-06T06:32:27.293Z,1017.84
2023-09-06T06:34:12.273Z,1017.83
2023-09-06T06:35:57.303Z,1017.89
2023-09-06T06:37:42.316Z,1017.84
2023-09-06T06:39:27.257Z,1017.84
2023-09-06T06:41:12.298Z,1017.84
2023-09-06T06:42:57.290Z,1017.9
2023-09-06T06:44:42.288Z,1017.73
2023-09-06T06:46:27.279Z,1017.84
2023-09-06T06:48:12.332Z,1017.89
2023-09-06T06:49:57.352Z,1017.93
2023-09-06T06:51:42.516Z,1017.96
2023-09-06T06:53:27.307Z,1017.91
2023-09-06T06:55:12.325Z,1017.9
2023-09-06T06:56:57.285Z,1017.94
2023-09-06T06:58:42.367Z,1018.01
2023-09-06T07:00:27.292Z,1018.09
2023-09-06T07:02:12.304Z,1018.02
2023-09-06T07:03:57.335Z,1017.97
2023-09-06T07:05:42.361Z,1018.02
2023-09-06T07:07:27.341Z,1018.03
2023-09-06T07:09:12.324Z,1018.1
2023-09-06T07:10:57.351Z,1018.05
2023-09-06T07:12:42.329Z,1018.05
2023-09-06T07:14:27.353Z,1018.1
2023-09-06T07:16:12.354Z,1018.09
2023-09-06T07:17:57.394Z,1018.11
2023-09-06T07:19:42.301Z,1018.13
2023-09-06T07:21:27.361Z,1018.11
2023-09-06T07:23:12.343Z,1018.1
2023-09-06T07:24:57.331Z,1018.14
2023-09-06T07:26:42.336Z,1018.1
2023-09-06T07:28:27.532Z,1018.17
2023-09-06T07:30:12.341Z,1018.15
2023-09-06T07:31:57.339Z,1018.16
2023-09-06T07:33:42.338Z,1018.13
2023-09-06T07:35:27.399Z,1018.19
2023-09-06T07:37:12.395Z,1018.23
2023-09-06T07:38:57.401Z,1018.14
2023-09-06T07:40:42.391Z,1018.21
2023-09-06T07:42:27.351Z,1018.23
2023-09-06T07:44:12.341Z,1018.22
2023-09-06T07:45:57.326Z,1018.17
2023-09-06T07:47:42.441Z,1018.19
2023-09-06T07:49:29.705Z,1018.18
2023-09-06T07:51:12.367Z,1018.13
2023-09-06T07:52:57.389Z,1018.18
2023-09-06T07:54:42.360Z,1018.18
2023-09-06T07:56:27.396Z,1018.22
2023-09-06T07:58:12.395Z,1018.23
2023-09-06T07:59:57.354Z,1018.26
2023-09-06T08:01:42.404Z,1018.19
2023-09-06T08:03:27.548Z,1018.15
2023-09-06T08:05:12.367Z,1018.26
2023-09-06T08:06:57.423Z,1018.23
2023-09-06T08:08:42.474Z,1018.24
2023-09-06T08:10:27.384Z,1018.21
2023-09-06T08:12:12.400Z,1018.25
2023-09-06T08:13:57.394Z,1018.19
2023-09-06T08:15:42.445Z,1018.2
2023-09-06T08:17:27.418Z,1018.13
2023-09-06T08:19:12.428Z,1018.16
2023-09-06T08:20:57.495Z,1018.16
2023-09-06T08:22:45.148Z,1018.2
2023-09-06T08:24:27.465Z,1018.12
2023-09-06T08:26:12.445Z,1018.17
2023-09-06T08:27:57.413Z,1018.13
2023-09-06T08:29:42.464Z,1018.17
2023-09-06T08:31:27.499Z,1018.24
2023-09-06T08:33:12.542Z,1018.18
2023-09-06T08:34:57.430Z,1018.13
2023-09-06T08:36:42.447Z,1018.23
2023-09-06T08:38:27.510Z,1018.1
2023-09-06T08:40:12.480Z,1018.19
2023-09-06T08:41:57.446Z,1018.18
2023-09-06T08:43:42.441Z,1018.15
2023-09-06T08:45:27.444Z,1018.07
2023-09-06T08:47:12.506Z,1018.04
2023-09-06T08:48:57.606Z,1018.17
2023-09-06T08:50:42.452Z,1018.19
2023-09-06T08:52:27.479Z,1018.16
2023-09-06T08:54:12.498Z,1018.16
2023-09-06T08:55:57.491Z,1018.15
2023-09-06T08:57:42.483Z,1018.13
2023-09-06T08:59:27.481Z,1018.1
2023-09-06T09:01:12.553Z,1018.13
2023-09-06T09:02:57.493Z,1018.17
2023-09-06T09:04:42.541Z,1018.23
2023-09-06T09:06:27.497Z,1018.12
2023-09-06T09:08:12.467Z,1018.18
2023-09-06T09:09:57.563Z,1018.2
2023-09-06T09:11:42.615Z,1018.19
2023-09-06T09:13:27.749Z,1018.2
2023-09-06T09:16:57.842Z,1018.23
2023-09-06T09:18:42.575Z,1018.23
2023-09-06T09:20:27.549Z,1018.28
2023-09-06T09:22:12.500Z,1018.28
2023-09-06T09:23:57.529Z,1018.3
2023-09-06T09:25:42.507Z,1018.28
2023-09-06T09:27:27.556Z,1018.34
2023-09-06T09:29:12.496Z,1018.32
2023-09-06T09:30:57.536Z,1018.23
2023-09-06T09:32:42.579Z,1018.23
2023-09-06T09:34:27.527Z,1018.23
2023-09-06T09:36:12.603Z,1018.13
2023-09-06T09:37:57.516Z,1018.21
2023-09-06T09:39:42.586Z,1018.17
2023-09-06T09:41:27.900Z,1018.22
2023-09-06T09:43:12.565Z,1018.2
2023-09-06T09:44:57.560Z,1018.16
2023-09-06T09:46:42.576Z,1018.16
2023-09-06T09:48:27.631Z,1018.21
2023-09-06T09:50:12.538Z,1018.22
2023-09-06T09:51:57.573Z,1018.21
2023-09-06T09:53:42.560Z,1018.14
2023-09-06T09:55:27.628Z,1018.18
2023-09-06T09:57:12.560Z,1018.15
2023-09-06T09:58:57.697Z,1018.16
2023-09-06T10:00:42.675Z,1018.1
2023-09-06T10:02:35.320Z,1018.11
2023-09-06T10:04:12.625Z,1017.99
2023-09-06T10:05:57.586Z,1017.98
2023-09-06T10:07:49.282Z,1018.05
2023-09-06T10:09:27.578Z,1017.94
2023-09-06T10:11:12.594Z,1017.95
2023-09-06T10:12:57.582Z,1017.96
2023-09-06T10:14:42.591Z,1018
2023-09-06T10:16:27.644Z,1017.93
2023-09-06T10:18:12.754Z,1017.94
2023-09-06T10:19:57.588Z,1018.01
2023-09-06T10:21:42.631Z,1018.01
2023-09-06T10:23:27.589Z,1017.9
2023-09-06T10:25:12.607Z,1017.97
2023-09-06T10:26:57.626Z,1017.92
2023-09-06T10:28:42.590Z,1017.94
2023-09-06T10:30:27.677Z,1017.92
2023-09-06T10:32:12.614Z,1017.91
2023-09-06T10:33:57.655Z,1017.91
2023-09-06T10:35:42.639Z,1017.93
2023-09-06T10:37:27.615Z,1017.99
2023-09-06T10:39:12.629Z,1017.93
2023-09-06T10:40:57.928Z,1017.9
2023-09-06T10:42:42.638Z,1017.88
2023-09-06T10:44:27.642Z,1018.03
2023-09-06T10:46:12.818Z,1017.83
2023-09-06T10:47:57.993Z,1017.84
2023-09-06T10:49:42.638Z,1017.96
2023-09-06T10:51:27.621Z,1018
2023-09-06T10:53:12.642Z,1017.83
2023-09-06T10:54:57.657Z,1017.95
2023-09-06T10:56:42.647Z,1017.98
2023-09-06T10:58:27.937Z,1017.93
2023-09-06T11:00:12.646Z,1017.93
2023-09-06T11:01:57.833Z,1017.85
2023-09-06T11:03:42.742Z,1017.95
2023-09-06T11:05:27.660Z,1017.87
2023-09-06T11:07:12.642Z,1017.87
2023-09-06T11:08:57.667Z,1017.93
2023-09-06T11:10:42.680Z,1017.89
2023-09-06T11:12:27.648Z,1017.85
2023-09-06T11:14:12.652Z,1017.84
2023-09-06T11:15:57.699Z,1017.84
2023-09-06T11:17:44.063Z,1017.82
2023-09-06T11:19:27.656Z,1017.77
2023-09-06T11:21:12.706Z,1017.7
2023-09-06T11:22:57.664Z,1017.73
2023-09-06T11:24:42.981Z,1017.72
2023-09-06T11:26:27.686Z,1017.73
2023-09-06T11:28:12.678Z,1017.61
2023-09-06T11:29:57.672Z,1017.65
2023-09-06T11:31:42.714Z,1017.74
2023-09-06T11:33:27.768Z,1017.63
2023-09-06T11:35:12.699Z,1017.66
2023-09-06T11:36:57.734Z,1017.62
2023-09-06T11:38:42.719Z,1017.54
2023-09-06T11:40:27.699Z,1017.66
2023-09-06T11:42:12.733Z,1017.6
2023-09-06T11:43:57.731Z,1017.6
2023-09-06T11:45:42.688Z,1017.58
2023-09-06T11:47:27.789Z,1017.64
2023-09-06T11:49:12.770Z,1017.56
2023-09-06T11:50:57.713Z,1017.53
2023-09-06T11:52:55.463Z,1017.56
2023-09-06T11:54:27.721Z,1017.5
2023-09-06T11:56:12.718Z,1017.54
2023-09-06T11:57:57.726Z,1017.54
2023-09-06T11:59:42.735Z,1017.52
2023-09-06T12:01:27.888Z,1017.5
2023-09-06T12:03:12.769Z,1017.56
2023-09-06T12:04:57.845Z,1017.51
2023-09-06T12:06:43.309Z,1017.42
2023-09-06T12:08:27.779Z,1017.32
2023-09-06T12:10:12.752Z,1017.34
2023-09-06T12:11:57.786Z,1017.36
2023-09-06T12:13:42.732Z,1017.29
2023-09-06T12:15:27.762Z,1017.26
2023-09-06T12:17:12.764Z,1017.31
2023-09-06T12:18:57.780Z,1017.28
2023-09-06T12:20:42.836Z,1017.33
2023-09-06T12:22:27.753Z,1017.29
2023-09-06T12:24:12.782Z,1017.19
2023-09-06T12:25:57.758Z,1017.22
2023-09-06T12:27:42.774Z,1017.26
2023-09-06T12:29:27.792Z,1017.27
2023-09-06T12:31:17.430Z,1017.24
2023-09-06T12:32:57.869Z,1017.22
2023-09-06T12:34:42.777Z,1017.15
2023-09-06T12:36:27.816Z,1017.25
2023-09-06T12:38:12.802Z,1017.14
2023-09-06T12:39:57.804Z,1017.21
2023-09-06T12:41:42.810Z,1017.16
2023-09-06T12:43:27.852Z,1017.13
2023-09-06T12:45:12.803Z,1017.12
2023-09-06T12:46:57.803Z,1017.12
2023-09-06T12:48:42.904Z,1017.09
2023-09-06T12:50:27.844Z,1017.09
2023-09-06T12:52:12.821Z,1017.12
2023-09-06T12:53:57.862Z,1017.06
2023-09-06T12:55:42.846Z,1017.13
2023-09-06T12:57:27.852Z,1017
2023-09-06T12:59:12.822Z,1017.07
2023-09-06T13:00:57.866Z,1017.07
2023-09-06T13:02:42.847Z,1017.03
2023-09-06T13:04:27.971Z,1017.07
2023-09-06T13:06:12.840Z,1017.11
2023-09-06T13:07:57.868Z,1016.98
2023-09-06T13:09:42.829Z,1017.1
2023-09-06T13:11:27.864Z,1017.03
2023-09-06T13:13:13.139Z,1017.03
2023-09-06T13:14:57.839Z,1017.05
2023-09-06T13:16:42.936Z,1017.02
2023-09-06T13:18:28.266Z,1017.07
2023-09-06T13:20:12.881Z,1016.97
2023-09-06T13:21:57.870Z,1017
2023-09-06T13:23:42.933Z,1016.95
2023-09-06T13:25:28.209Z,1016.95
2023-09-06T13:27:12.873Z,1016.89
2023-09-06T13:28:57.886Z,1016.9
2023-09-06T13:30:42.945Z,1016.85
2023-09-06T13:32:27.925Z,1016.91
2023-09-06T13:34:12.877Z,1017.01
2023-09-06T13:35:57.879Z,1016.86
2023-09-06T13:37:42.896Z,1016.81
2023-09-06T13:39:27.898Z,1016.86
2023-09-06T13:41:12.890Z,1016.85
2023-09-06T13:42:57.871Z,1016.8
2023-09-06T13:44:42.893Z,1016.72
2023-09-06T13:46:27.930Z,1016.75
2023-09-06T13:48:12.975Z,1016.72
2023-09-06T13:49:57.897Z,1016.68
2023-09-06T13:51:42.931Z,1016.71
2023-09-06T13:53:28.405Z,1016.59
2023-09-06T13:55:13.039Z,1016.8
2023-09-06T13:56:57.910Z,1016.77
2023-09-06T13:58:42.964Z,1016.69
2023-09-06T14:00:27.950Z,1016.82
2023-09-06T14:02:13.042Z,1016.75
2023-09-06T14:03:58.005Z,1016.69
2023-09-06T14:05:42.894Z,1016.74
2023-09-06T14:07:27.897Z,1016.75
2023-09-06T14:09:12.926Z,1016.75
2023-09-06T14:10:58.000Z,1016.67
2023-09-06T14:12:42.931Z,1016.79
2023-09-06T14:14:27.952Z,1016.65
2023-09-06T14:16:12.965Z,1016.76
2023-09-06T14:17:57.967Z,1016.75
2023-09-06T14:19:43.020Z,1016.67
2023-09-06T14:21:27.964Z,1016.65
2023-09-06T14:23:13.015Z,1016.65
2023-09-06T14:24:57.959Z,1016.63
2023-09-06T14:26:43.264Z,1016.58
2023-09-06T14:28:28.558Z,1016.54
2023-09-06T14:30:12.977Z,1016.51
2023-09-06T14:31:58.117Z,1016.55
2023-09-06T14:33:42.971Z,1016.63
2023-09-06T14:35:27.961Z,1016.56
2023-09-06T14:37:13.016Z,1016.52
2023-09-06T14:38:57.992Z,1016.49
2023-09-06T14:40:42.989Z,1016.54
2023-09-06T14:42:28.005Z,1016.54
2023-09-06T14:44:13.005Z,1016.53
2023-09-06T14:45:57.969Z,1016.49
2023-09-06T14:47:43.047Z,1016.5
2023-09-06T14:49:28.012Z,1016.54
2023-09-06T14:51:13.008Z,1016.45
2023-09-06T14:52:58.003Z,1016.48
2023-09-06T14:54:43.026Z,1016.46
2023-09-06T14:56:28.008Z,1016.44
2023-09-06T14:58:13.018Z,1016.53
2023-09-06T14:59:58.038Z,1016.49
2023-09-06T15:01:43.045Z,1016.44
2023-09-06T15:03:28.090Z,1016.48
2023-09-06T15:05:13.029Z,1016.47
2023-09-06T15:06:59.548Z,1016.44
2023-09-06T15:08:43.050Z,1016.41
2023-09-06T15:10:28.043Z,1016.44
2023-09-06T15:12:13.090Z,1016.41
2023-09-06T15:13:58.055Z,1016.31
2023-09-06T15:15:43.060Z,1016.39
2023-09-06T15:17:28.028Z,1016.42
2023-09-06T15:19:13.188Z,1016.41
2023-09-06T15:20:58.063Z,1016.37
2023-09-06T15:22:43.049Z,1016.46
2023-09-06T15:24:28.058Z,1016.4
2023-09-06T15:26:13.087Z,1016.46
2023-09-06T15:27:58.033Z,1016.31
2023-09-06T15:29:43.067Z,1016.35
2023-09-06T15:31:28.058Z,1016.33
2023-09-06T15:33:13.073Z,1016.42
2023-09-06T15:34:58.030Z,1016.4
2023-09-06T15:36:43.065Z,1016.41
2023-09-06T15:38:28.363Z,1016.39
2023-09-06T15:40:13.048Z,1016.28
2023-09-06T15:41:58.057Z,1016.39
2023-09-06T15:43:43.062Z,1016.36
2023-09-06T15:45:28.071Z,1016.32
2023-09-06T15:47:13.073Z,1016.31
2023-09-06T15:48:58.090Z,1016.33
2023-09-06T15:50:43.092Z,1016.39
2023-09-06T15:52:28.071Z,1016.42
2023-09-06T15:54:13.095Z,1016.36
2023-09-06T15:55:58.069Z,1016.32
2023-09-06T15:57:43.071Z,1016.34
2023-09-06T15:59:28.121Z,1016.33
2023-09-06T16:01:13.116Z,1016.41
2023-09-06T16:02:58.257Z,1016.31
2023-09-06T16:04:43.094Z,1016.37
2023-09-06T16:06:28.116Z,1016.35
2023-09-06T16:08:13.139Z,1016.36
2023-09-06T16:09:58.164Z,1016.38
2023-09-06T16:11:43.118Z,1016.34
2023-09-06T16:13:28.098Z,1016.34
2023-09-06T16:15:13.125Z,1016.39
2023-09-06T16:16:58.132Z,1016.32
2023-09-06T16:18:43.124Z,1016.33
2023-09-06T16:20:28.126Z,1016.32
2023-09-06T16:22:13.173Z,1016.34
2023-09-06T16:23:58.125Z,1016.32
2023-09-06T16:25:43.128Z,1016.35
2023-09-06T16:27:28.159Z,1016.27
2023-09-06T16:29:13.161Z,1016.32
2023-09-06T16:30:58.194Z,1016.29
2023-09-06T16:32:43.266Z,1016.34
2023-09-06T16:34:28.171Z,1016.41
2023-09-06T16:36:13.177Z,1016.33
2023-09-06T16:37:58.148Z,1016.39
2023-09-06T16:39:43.201Z,1016.37
2023-09-06T16:41:28.151Z,1016.42
2023-09-06T16:43:13.206Z,1016.37
2023-09-06T16:44:58.185Z,1016.41
2023-09-06T16:46:43.221Z,1016.38
2023-09-06T16:48:28.448Z,1016.28
2023-09-06T16:50:13.193Z,1016.34
2023-09-06T16:51:58.195Z,1016.24
2023-09-06T16:53:43.170Z,1016.2
2023-09-06T16:55:28.240Z,1016.26
2023-09-06T16:57:13.206Z,1016.2
2023-09-06T16:58:58.202Z,1016.23
2023-09-06T17:00:43.209Z,1016.19
2023-09-06T17:02:28.232Z,1016.17
2023-09-06T17:04:13.229Z,1016.19
2023-09-06T17:05:58.214Z,1016.24
2023-09-06T17:07:43.227Z,1016.26
2023-09-06T17:09:28.207Z,1016.21
2023-09-06T17:11:13.532Z,1016.13
2023-09-06T17:12:58.237Z,1016.09
2023-09-06T17:14:43.203Z,1016.19
2023-09-06T17:16:28.423Z,1016.15
2023-09-06T17:18:13.271Z,1016.17
2023-09-06T17:19:58.232Z,1016.23
2023-09-06T17:21:43.229Z,1016.25
2023-09-06T17:23:28.231Z,1016.2
2023-09-06T17:25:13.231Z,1016.19
2023-09-06T17:26:58.528Z,1016.17
2023-09-06T17:28:43.249Z,1016.14
2023-09-06T17:30:28.228Z,1016.16
2023-09-06T17:32:13.284Z,1016.22
2023-09-06T17:33:58.252Z,1016.28
2023-09-06T17:35:43.275Z,1016.24
2023-09-06T17:37:28.227Z,1016.27
2023-09-06T17:39:13.513Z,1016.24
2023-09-06T17:40:58.303Z,1016.31
2023-09-06T17:42:43.249Z,1016.28
2023-09-06T17:44:29.740Z,1016.3
2023-09-06T17:46:13.313Z,1016.25
2023-09-06T17:47:58.352Z,1016.2
2023-09-06T17:49:43.316Z,1016.21
2023-09-06T17:51:28.303Z,1016.27
2023-09-06T17:53:13.272Z,1016.32
2023-09-06T17:54:58.289Z,1016.27
2023-09-06T17:56:43.311Z,1016.33
2023-09-06T17:58:28.543Z,1016.34
2023-09-06T18:00:13.262Z,1016.28
2023-09-06T18:01:58.380Z,1016.31
2023-09-06T18:03:43.401Z,1016.35
2023-09-06T18:05:28.461Z,1016.39
2023-09-06T18:07:13.328Z,1016.35
2023-09-06T18:08:58.326Z,1016.39
2023-09-06T18:10:43.294Z,1016.34
2023-09-06T18:12:28.306Z,1016.33
2023-09-06T18:14:13.312Z,1016.39
2023-09-06T18:15:58.378Z,1016.37
2023-09-06T18:17:43.361Z,1016.38
2023-09-06T18:19:28.310Z,1016.45
2023-09-06T18:21:13.306Z,1016.51
2023-09-06T18:22:58.388Z,1016.51
2023-09-06T18:24:43.330Z,1016.39
2023-09-06T18:26:28.304Z,1016.44
2023-09-06T18:28:13.302Z,1016.5
2023-09-06T18:29:58.328Z,1016.42
2023-09-06T18:31:43.364Z,1016.46
2023-09-06T18:33:28.372Z,1016.49
2023-09-06T18:35:13.345Z,1016.42
2023-09-06T18:36:58.311Z,1016.47
2023-09-06T18:38:43.355Z,1016.48
2023-09-06T18:40:28.379Z,1016.5
2023-09-06T18:42:13.364Z,1016.58
2023-09-06T18:43:59.002Z,1016.42
2023-09-06T18:45:43.355Z,1016.55
2023-09-06T18:47:28.440Z,1016.55
2023-09-06T18:49:13.359Z,1016.56
2023-09-06T18:50:58.381Z,1016.54
2023-09-06T18:52:43.431Z,1016.54
2023-09-06T18:54:28.419Z,1016.59
2023-09-06T18:56:13.506Z,1016.57
2023-09-06T18:58:05.856Z,1016.64
2023-09-06T18:59:43.372Z,1016.69
2023-09-06T19:01:28.440Z,1016.66
2023-09-06T19:03:13.539Z,1016.64
2023-09-06T19:04:58.405Z,1016.59
2023-09-06T19:06:43.407Z,1016.65
2023-09-06T19:08:28.594Z,1016.68
2023-09-06T19:10:13.394Z,1016.71
2023-09-06T19:11:58.516Z,1016.74
2023-09-06T19:13:43.435Z,1016.82
2023-09-06T19:15:28.382Z,1016.74
2023-09-06T19:17:14.995Z,1016.77
2023-09-06T19:18:58.412Z,1016.82
2023-09-06T19:20:43.415Z,1016.82
2023-09-06T19:22:28.392Z,1016.8
2023-09-06T19:24:13.430Z,1016.81
2023-09-06T19:25:58.446Z,1016.87
2023-09-06T19:27:43.414Z,1016.87
2023-09-06T19:29:28.469Z,1016.89
2023-09-06T19:31:13.499Z,1016.91
2023-09-06T19:32:58.462Z,1016.87
2023-09-06T19:34:43.417Z,1016.84
2023-09-06T19:36:28.438Z,1016.95
2023-09-06T19:38:13.450Z,1016.92
2023-09-06T19:39:58.454Z,1016.86
2023-09-06T19:41:43.481Z,1016.93
2023-09-06T19:43:28.460Z,1016.95
2023-09-06T19:45:13.439Z,1017
2023-09-06T19:46:58.447Z,1016.97
2023-09-06T19:48:54.981Z,1017.01
2023-09-06T19:50:30.816Z,1017.05
2023-09-06T19:52:13.455Z,1017.07
2023-09-06T19:53:58.523Z,1017.06
2023-09-06T19:55:43.458Z,1017.04
2023-09-06T19:57:28.491Z,1017.05
2023-09-06T19:59:13.470Z,1017.09
2023-09-06T20:00:58.452Z,1017.08
2023-09-06T20:02:43.761Z,1017.09
2023-09-06T20:04:28.604Z,1017.05
2023-09-06T20:06:13.469Z,1017.05
2023-09-06T20:07:58.477Z,1017.15
2023-09-06T20:09:43.493Z,1016.96
2023-09-06T20:11:28.512Z,1017.02
2023-09-06T20:13:13.510Z,1017.1
2023-09-06T20:14:58.468Z,1017.14
2023-09-06T20:16:43.489Z,1017.12
2023-09-06T20:18:28.761Z,1017.09
2023-09-06T20:20:13.512Z,1017.13
2023-09-06T20:21:58.517Z,1017.13
2023-09-06T20:23:43.503Z,1017.1
2023-09-06T20:25:30.794Z,1017.17
2023-09-06T20:27:13.528Z,1017.15
2023-09-06T20:28:58.527Z,1017.23
2023-09-06T20:30:43.521Z,1017.22
2023-09-06T20:32:28.554Z,1017.22
2023-09-06T20:34:13.617Z,1017.24
2023-09-06T20:35:58.531Z,1017.17
2023-09-06T20:37:43.530Z,1017.17
2023-09-06T20:39:28.514Z,1017.27
2023-09-06T20:41:13.515Z,1017.28
2023-09-06T20:42:58.531Z,1017.32
2023-09-06T20:44:43.557Z,1017.28
2023-09-06T20:46:28.643Z,1017.26
2023-09-06T20:48:13.614Z,1017.32
2023-09-06T20:49:58.525Z,1017.29
2023-09-06T20:51:43.533Z,1017.2
2023-09-06T20:53:29.167Z,1017.25
2023-09-06T20:55:13.539Z,1017.23
2023-09-06T20:56:58.561Z,1017.37
2023-09-06T20:58:43.542Z,1017.25
2023-09-06T21:00:28.583Z,1017.16
2023-09-06T21:02:13.549Z,1017.33
2023-09-06T21:03:58.674Z,1017.27
2023-09-06T21:05:43.552Z,1017.23
2023-09-06T21:07:28.540Z,1017.26
2023-09-06T21:09:13.564Z,1017.28
2023-09-06T21:10:58.575Z,1017.31
2023-09-06T21:12:43.563Z,1017.29
2023-09-06T21:14:28.567Z,1017.24
2023-09-06T21:16:13.644Z,1017.34